Time;durP1;ratioP1;P1;durP2;ratioP2;P2;SDS_P1;SDS_P2;PMS_P1;PMS_P2;Temp;Humidity;BMP_temperature;BMP_pressure;BME280_temperature;BME280_humidity;BME280_pressure;Samples;Min_cycle;Max_cycle;Signal;HPM_P1;HPM_P2
2021/04/04 00:00:34;;;;;;;1.08;1.00;;;;;;;6.95;44.91;100012.84;4445303;32;33793;-79
2021/04/04 00:03:02;;;;;;;3.58;2.20;;;;;;;6.87;45.44;100009.94;4443027;32;32652;-79
2021/04/04 00:05:30;;;;;;;2.40;0.68;;;;;;;6.70;46.12;100002.47;4430715;32;35173;-78
2021/04/04 00:07:57;;;;;;;1.58;1.48;;;;;;;6.70;46.35;100002.47;4405333;32;34395;-78
2021/04/04 00:10:26;;;;;;;3.20;1.00;;;;;;;6.54;46.45;100009.84;4430595;32;35003;-78
2021/04/04 00:12:53;;;;;;;1.07;1.00;;;;;;;6.42;46.51;100006.28;4429953;32;32950;-79
2021/04/04 00:15:21;;;;;;;;;;;;;;;6.72;45.58;100008.47;4432142;32;33400;-79
2021/04/04 00:17:48;;;;;;;;;;;;;;;6.63;46.08;100009.97;4418634;32;34309;-77
2021/04/04 00:20:17;;;;;;;4.10;2.37;;;;;;;6.76;45.91;100005.47;4430471;32;34175;-79
2021/04/04 00:22:46;;;;;;;4.40;2.15;;;;;;;6.79;46.03;100005.25;4430162;32;32665;-78
2021/04/04 00:25:15;;;;;;;2.08;1.90;;;;;;;6.77;45.92;100009.81;4412818;32;33704;-78
2021/04/04 00:27:43;;;;;;;1.67;1.58;;;;;;;6.74;46.19;100010.06;4413157;32;35445;-80
2021/04/04 00:30:17;;;;;;;1.30;1.27;;;;;;;6.71;46.70;100010.25;4425759;32;35246;-79
2021/04/04 00:32:45;;;;;;;2.45;1.10;;;;;;;6.79;46.17;100023.75;4425604;32;32941;-79
2021/04/04 00:35:15;;;;;;;1.17;1.17;;;;;;;6.47;46.95;100017.38;4425894;32;33405;-79
2021/04/04 00:37:44;;;;;;;2.92;1.27;;;;;;;6.52;46.88;100024.97;4425396;32;35237;-77
2021/04/04 00:40:15;;;;;;;1.35;1.20;;;;;;;6.23;47.51;100021.00;4425582;32;33812;-79
2021/04/04 00:42:42;;;;;;;3.15;2.85;;;;;;;6.05;48.74;100015.22;4425919;32;34017;-79
2021/04/04 00:45:16;;;;;;;1.80;1.70;;;;;;;5.90;49.19;100013.69;4413340;32;34522;-79
2021/04/04 00:47:50;;;;;;;1.02;0.62;;;;;;;5.65;50.23;100010.22;4412705;32;35862;-79
2021/04/04 00:50:21;;;;;;;2.72;2.37;;;;;;;5.48;50.81;100003.50;4412662;32;35034;-77
2021/04/04 00:52:48;;;;;;;1.12;1.12;;;;;;;5.55;50.91;100012.69;4425609;32;33151;-76
2021/04/04 00:55:17;;;;;;;1.25;1.25;;;;;;;5.57;50.98;100002.84;4414807;32;34464;-80
2021/04/04 00:57:44;;;;;;;1.40;1.30;;;;;;;5.40;51.91;100012.06;4412349;32;34725;-79
2021/04/04 01:00:14;;;;;;;1.02;0.70;;;;;;;4.96;53.51;100011.62;4399575;32;34982;-79
2021/04/04 01:02:42;;;;;;;2.35;1.98;;;;;;;4.92;53.68;100013.63;4425877;32;34601;-80
2021/04/04 01:05:11;;;;;;;;;;;;;;;5.12;52.97;100015.75;4425474;32;34014;-77
2021/04/04 01:07:43;;;;;;;1.65;0.88;;;;;;;4.65;54.93;100026.03;4412714;32;33117;-80
2021/04/04 01:10:11;;;;;;;1.40;1.02;;;;;;;4.95;53.86;100015.22;4425241;32;34222;-80
2021/04/04 01:13:06;;;;;;;1.20;1.17;;;;;;;5.00;53.92;100021.03;4425409;32;33943;-78
2021/04/04 01:15:41;;;;;;;20.77;2.65;;;;;;;5.28;53.03;100032.19;4414392;32;35185;-79
2021/04/04 01:18:28;;;;;;;3.87;1.77;;;;;;;5.46;52.69;100024.81;4424711;32;35139;-80
2021/04/04 01:20:58;;;;;;;0.75;0.75;;;;;;;5.21;54.07;100032.75;4414105;32;35155;-80
2021/04/04 01:23:58;;;;;;;1.77;1.70;;;;;;;4.49;56.78;100035.88;4427705;32;35008;-78
2021/04/04 01:26:29;;;;;;;4.82;1.37;;;;;;;4.78;56.23;100040.06;4440220;32;33433;-77
2021/04/04 01:28:57;;;;;;;5.50;2.50;;;;;;;4.58;56.79;100043.19;4414479;32;35409;-78
2021/04/04 01:31:25;;;;;;;;;;;;;;;4.71;56.53;100045.88;4427946;32;33444;-80
2021/04/04 01:33:53;;;;;;;;;;;;;;;4.58;57.16;100043.19;4427529;32;33094;-79
2021/04/04 01:36:21;;;;;;;0.40;0.40;;;;;;;4.83;56.54;100037.13;4427535;32;34425;-80
2021/04/04 01:38:52;;;;;;;0.90;0.90;;;;;;;4.71;56.86;100044.06;4427037;32;35155;-79
2021/04/04 01:41:27;;;;;;;1.15;0.80;;;;;;;4.68;57.05;100041.63;4417115;32;33635;-79
2021/04/04 01:44:16;;;;;;;5.97;1.65;;;;;;;4.57;57.29;100038.88;4427371;32;34659;-79
2021/04/04 01:46:46;;;;;;;2.22;1.75;;;;;;;4.60;57.01;100037.78;4401724;32;35514;-78
2021/04/04 01:49:15;;;;;;;3.53;2.70;;;;;;;4.67;57.09;100042.59;4427241;32;35900;-79
2021/04/04 01:51:45;;;;;;;4.68;1.10;;;;;;;4.56;57.39;100036.31;4414445;32;34491;-79
2021/04/04 01:54:15;;;;;;;1.25;0.55;;;;;;;4.41;57.91;100038.19;4426802;32;31582;-78
2021/04/04 01:56:43;;;;;;;1.62;1.45;;;;;;;4.55;57.31;100038.09;4427406;32;34018;-78
2021/04/04 01:59:12;;;;;;;3.25;2.33;;;;;;;4.67;57.17;100037.31;4427210;32;35825;-77
2021/04/04 02:01:44;;;;;;;0.73;0.73;;;;;;;4.51;57.51;100035.78;4427657;32;33886;-80
2021/04/04 02:04:13;;;;;;;6.45;1.75;;;;;;;4.55;57.06;100032.81;4427559;32;33637;-79
2021/04/04 02:06:45;;;;;;;1.40;1.17;;;;;;;4.39;57.88;100044.47;4427160;32;33300;-80
2021/04/04 02:09:14;;;;;;;5.12;1.20;;;;;;;4.34;58.12;100033.41;4414436;32;37025;-79
2021/04/04 02:11:48;;;;;;;2.92;1.87;;;;;;;4.67;57.21;100039.94;4427423;32;34569;-77
2021/04/04 02:14:18;;;;;;;0.37;0.37;;;;;;;4.40;57.84;100049.66;4427082;32;34010;-80
2021/04/04 02:16:48;;;;;;;1.83;1.73;;;;;;;4.18;59.15;100045.88;4426640;32;34148;-79
2021/04/04 02:19:18;;;;;;;4.95;3.00;;;;;;;4.08;59.24;100036.87;4427019;32;35474;-79
2021/04/04 02:21:51;;;;;;;3.72;2.17;;;;;;;3.98;59.80;100041.03;4426987;32;34311;-78
2021/04/04 02:24:21;;;;;;;3.05;2.20;;;;;;;3.94;59.71;100039.53;4399527;32;32516;-77
2021/04/04 02:26:50;;;;;;;2.30;2.15;;;;;;;4.30;58.72;100045.06;4396259;32;33827;-80
2021/04/04 02:29:19;;;;;;;0.85;0.85;;;;;;;4.41;58.24;100045.22;4382336;32;37109;-79
2021/04/04 02:31:52;;;;;;;1.58;1.27;;;;;;;4.41;58.14;100038.19;4399748;32;33673;-78
2021/04/04 02:34:23;;;;;;;2.25;2.12;;;;;;;4.09;58.97;100035.94;4401376;32;34154;-80
2021/04/04 02:36:52;;;;;;;2.97;1.65;;;;;;;4.29;58.67;100046.03;4398811;32;33387;-77
2021/04/04 02:39:25;;;;;;;1.15;1.15;;;;;;;4.17;59.10;100038.91;4403534;32;34316;-79
2021/04/04 02:41:56;;;;;;;2.58;1.05;;;;;;;4.61;57.72;100044.78;4410788;32;34027;-80
2021/04/04 02:44:30;;;;;;;1.40;1.30;;;;;;;4.55;57.58;100043.38;4396959;32;34824;-79
2021/04/04 02:47:02;;;;;;;3.05;1.17;;;;;;;4.65;57.51;100044.47;4405649;32;34660;-77
2021/04/04 02:49:32;;;;;;;2.47;1.90;;;;;;;4.85;56.66;100046.63;4397835;32;35647;-79
2021/04/04 02:52:02;;;;;;;2.20;2.10;;;;;;;4.65;57.22;100041.84;4396689;32;34127;-80
2021/04/04 02:54:32;;;;;;;0.88;0.88;;;;;;;4.74;57.21;100045.66;4402193;32;33268;-77
2021/04/04 02:57:01;;;;;;;2.33;2.12;;;;;;;4.58;57.46;100048.44;4376102;32;34662;-77
2021/04/04 02:59:38;;;;;;;1.65;1.02;;;;;;;4.52;57.80;100042.75;4399662;32;35711;-78
2021/04/04 03:02:07;;;;;;;1.42;1.33;;;;;;;4.89;56.92;100049.91;4402671;32;33964;-80
2021/04/04 03:04:36;;;;;;;1.02;1.02;;;;;;;4.64;57.61;100047.19;4396780;32;34346;-80
2021/04/04 03:07:04;;;;;;;1.90;1.40;;;;;;;4.73;57.06;100043.97;4387488;32;34608;-79
2021/04/04 03:09:33;;;;;;;0.77;0.65;;;;;;;4.96;56.45;100046.75;4411096;32;35773;-78
2021/04/04 03:12:02;;;;;;;2.72;2.35;;;;;;;4.61;57.25;100056.16;4411198;32;33455;-80
2021/04/04 03:14:29;;;;;;;;;;;;;;;4.72;57.14;100050.19;4397603;32;34031;-78
2021/04/04 03:16:58;;;;;;;1.45;1.35;;;;;;;4.39;58.21;100049.75;4399189;32;33952;-78
2021/04/04 03:19:25;;;;;;;1.95;1.85;;;;;;;4.32;58.03;100048.44;4396928;32;35828;-80
2021/04/04 03:21:55;;;;;;;2.05;1.62;;;;;;;4.22;58.64;100052.62;4404362;32;34448;-79
2021/04/04 03:24:24;;;;;;;2.15;1.90;;;;;;;4.25;58.75;100053.28;4409178;32;32866;-78
2021/04/04 03:26:53;;;;;;;1.95;1.50;;;;;;;4.15;58.98;100057.44;4400005;32;35768;-79
2021/04/04 03:29:20;;;;;;;2.03;1.92;;;;;;;4.23;58.82;100054.31;4388413;32;35665;-79
2021/04/04 03:31:49;;;;;;;0.75;0.75;;;;;;;4.39;57.96;100061.13;4416769;32;34697;-79
2021/04/04 03:34:17;;;;;;;2.28;2.08;;;;;;;4.42;57.81;100055.66;4401805;32;33437;-77
2021/04/04 03:36:45;;;;;;;1.95;1.17;;;;;;;4.37;58.13;100062.19;4401919;32;33643;-79
2021/04/04 03:39:13;;;;;;;2.33;1.27;;;;;;;4.57;57.24;100059.94;4413459;32;34764;-78
2021/04/04 03:41:41;;;;;;;11.48;1.73;;;;;;;4.25;58.00;100062.97;4413305;32;34161;-78
2021/04/04 03:44:10;;;;;;;3.20;2.83;;;;;;;4.37;57.89;100059.53;4413417;32;32846;-77
2021/04/04 03:46:40;;;;;;;3.12;2.72;;;;;;;4.51;57.40;100065.59;4413625;32;34079;-79
2021/04/04 03:49:08;;;;;;;0.77;0.77;;;;;;;4.60;56.95;100069.41;4400760;32;35391;-79
2021/04/04 03:51:36;;;;;;;5.15;2.22;;;;;;;4.71;56.58;100065.13;4413168;32;34691;-79
2021/04/04 03:54:04;;;;;;;2.08;1.45;;;;;;;4.87;56.11;100062.31;4413252;32;33383;-80
2021/04/04 03:56:34;;;;;;;3.62;2.30;;;;;;;4.93;55.44;100068.06;4399937;32;33296;-78
2021/04/04 03:59:05;;;;;;;2.12;2.03;;;;;;;4.97;55.45;100063.38;4413439;32;36472;-80
2021/04/04 04:01:35;;;;;;;5.07;3.12;;;;;;;4.79;56.37;100060.22;4413157;32;34122;-79
2021/04/04 04:04:03;;;;;;;1.85;0.85;;;;;;;4.90;55.63;100062.97;4400066;32;33164;-80
2021/04/04 04:06:33;;;;;;;3.65;1.33;;;;;;;5.05;55.06;100061.09;4413419;32;33619;-80
2021/04/04 04:09:06;;;;;;;1.52;1.17;;;;;;;4.96;55.30;100066.97;4400512;32;35498;-80
2021/04/04 04:11:38;;;;;;;2.95;1.27;;;;;;;4.95;55.08;100060.87;4413195;32;34236;-80
2021/04/04 04:14:06;;;;;;;1.08;1.05;;;;;;;5.20;54.27;100060.87;4413065;32;33161;-78
2021/04/04 04:16:38;;;;;;;1.83;1.45;;;;;;;5.24;53.99;100058.88;4413011;32;35045;-80
2021/04/04 04:19:07;;;;;;;0.73;0.73;;;;;;;5.32;53.78;100067.13;4400888;32;34819;-79
2021/04/04 04:21:37;;;;;;;0.95;0.73;;;;;;;5.31;53.66;100061.03;4400999;32;31223;-79
2021/04/04 04:24:07;;;;;;;1.12;1.12;;;;;;;5.19;54.25;100067.13;4428914;32;32367;-80
2021/04/04 04:26:38;;;;;;;1.15;1.15;;;;;;;5.24;54.06;100058.88;4419192;32;33660;-77
2021/04/04 04:29:06;;;;;;;3.55;1.55;;;;;;;5.06;54.61;100068.91;4432131;32;34649;-80
2021/04/04 04:31:38;;;;;;;2.20;1.90;;;;;;;4.93;55.09;100077.75;4431410;32;34274;-79
2021/04/04 04:34:07;;;;;;;1.27;1.25;;;;;;;4.72;55.39;100081.81;4444040;32;33105;-80
2021/04/04 04:36:36;;;;;;;2.30;1.77;;;;;;;4.92;54.93;100083.97;4418244;32;34242;-80
2021/04/04 04:39:05;;;;;;;1.83;1.70;;;;;;;4.82;55.37;100091.63;4418379;32;34911;-78
2021/04/04 04:41:35;;;;;;;2.97;2.25;;;;;;;4.74;55.88;100091.31;4417209;32;34458;-78
2021/04/04 04:44:05;;;;;;;1.87;1.77;;;;;;;4.87;55.54;100092.19;4430404;32;32777;-78
2021/04/04 04:46:33;;;;;;;1.30;1.20;;;;;;;4.92;55.49;100095.34;4430588;32;34481;-80
2021/04/04 04:49:01;;;;;;;2.20;2.10;;;;;;;5.10;55.06;100098.56;4430636;32;34774;-79
2021/04/04 04:51:28;;;;;;;3.10;2.17;;;;;;;4.97;55.33;100101.16;4417901;32;33662;-80
2021/04/04 04:53:57;;;;;;;2.00;1.90;;;;;;;4.70;56.08;100097.69;4430910;32;33698;-78
2021/04/04 04:56:25;;;;;;;2.23;1.83;;;;;;;4.94;55.53;100105.78;4429765;32;33048;-79
2021/04/04 04:58:53;;;;;;;0.62;0.62;;;;;;;4.91;55.72;100095.47;4420886;32;34394;-79
2021/04/04 05:01:24;;;;;;;7.80;3.05;;;;;;;5.15;55.07;100104.34;4417687;32;34375;-80
2021/04/04 05:03:52;;;;;;;2.40;2.20;;;;;;;4.91;55.76;100106.00;4417110;32;34909;-80
2021/04/04 05:06:19;;;;;;;1.40;1.20;;;;;;;4.93;55.74;100110.22;4418613;32;33545;-80
2021/04/04 05:08:48;;;;;;;2.15;1.98;;;;;;;4.95;55.84;100110.09;4430729;32;34765;-78
2021/04/04 05:11:17;;;;;;;3.08;2.85;;;;;;;4.93;56.32;100109.38;4430622;32;33594;-79
2021/04/04 05:13:46;;;;;;;2.33;2.12;;;;;;;4.44;57.94;100116.97;4430635;32;31755;-79
2021/04/04 05:16:15;;;;;;;5.53;2.20;;;;;;;4.77;57.29;100114.81;4430548;32;35202;-79
2021/04/04 05:18:47;;;;;;;1.62;1.55;;;;;;;4.93;56.88;100118.16;4431073;32;34974;-77
2021/04/04 05:21:24;;;;;;;1.05;1.05;;;;;;;5.07;56.24;100117.22;4431314;32;33130;-79
2021/04/04 05:24:00;;;;;;;1.15;1.12;;;;;;;5.08;56.42;100122.37;4440082;32;32544;-80
2021/04/04 05:26:39;;;;;;;1.25;1.23;;;;;;;5.36;55.42;100116.94;4424141;32;34590;-79
2021/04/04 05:29:10;;;;;;;1.35;1.35;;;;;;;5.35;55.79;100130.25;4414979;32;35762;-80
2021/04/04 05:31:49;;;;;;;2.37;2.28;;;;;;;5.39;55.96;100131.72;4402798;32;33620;-79
2021/04/04 05:34:19;;;;;;;3.75;2.53;;;;;;;5.38;55.43;100135.31;4427281;32;34727;-79
2021/04/04 05:37:02;;;;;;;3.20;2.62;;;;;;;5.47;55.03;100128.47;4415181;32;33143;-79
2021/04/04 05:39:31;;;;;;;1.90;1.62;;;;;;;5.62;54.53;100129.22;4414802;32;35457;-77
2021/04/04 05:42:18;;;;;;;5.62;3.00;;;;;;;5.35;55.25;100133.72;4414094;32;35741;-78
2021/04/04 05:44:53;;;;;;;2.12;1.95;;;;;;;5.81;53.94;100127.88;4402497;32;34899;-79
2021/04/04 05:47:50;;;;;;;3.35;2.92;;;;;;;6.09;52.91;100130.28;4426920;32;34601;-79
2021/04/04 05:50:25;;;;;;;3.17;2.35;;;;;;;6.22;52.87;100136.38;4415627;32;34621;-79
2021/04/04 05:52:57;;;;;;;1.75;1.65;;;;;;;6.30;52.98;100133.16;4414912;32;33559;-79
2021/04/04 05:55:28;;;;;;;2.25;2.03;;;;;;;6.26;52.79;100135.19;4426782;32;34262;-80
2021/04/04 05:58:02;;;;;;;1.55;1.45;;;;;;;6.35;53.41;100133.69;4414187;32;34477;-80
2021/04/04 06:00:33;;;;;;;2.67;2.47;;;;;;;6.09;53.40;100145.25;4426904;32;35106;-81
2021/04/04 06:03:39;;;;;;;4.30;2.33;;;;;;;6.33;53.52;100144.38;4414548;32;33684;-80
2021/04/04 06:06:40;;;;;;;4.62;1.90;;;;;;;6.54;52.90;100139.34;4439566;32;34232;-78
2021/04/04 06:09:19;;;;;;;1.87;1.77;;;;;;;6.80;51.87;100136.50;4420339;32;33638;-80
2021/04/04 06:11:53;;;;;;;3.15;1.70;;;;;;;7.16;51.03;100132.94;4426970;32;33060;-80
2021/04/04 06:14:53;;;;;;;3.53;2.83;;;;;;;6.87;51.58;100131.59;4427000;32;33925;-79
2021/04/04 06:17:30;;;;;;;2.08;1.98;;;;;;;7.01;51.41;100134.06;4428189;32;33664;-78
2021/04/04 06:20:32;;;;;;;3.37;3.05;;;;;;;6.88;51.29;100141.25;4429135;32;34831;-80
2021/04/04 06:23:21;;;;;;;4.75;2.67;;;;;;;7.15;50.61;100147.09;4429341;32;35246;-80
2021/04/04 06:25:49;;;;;;;2.65;2.08;;;;;;;7.07;50.73;100154.78;4443091;32;34155;-80
2021/04/04 06:28:45;;;;;;;2.78;2.28;;;;;;;7.14;50.71;100151.56;4430008;32;33219;-78
2021/04/04 06:31:47;;;;;;;3.30;2.42;;;;;;;7.29;50.25;100157.50;4417481;32;35466;-79
2021/04/04 06:34:23;;;;;;;2.85;2.45;;;;;;;7.74;49.29;100159.31;4429362;32;34268;-79
2021/04/04 06:37:06;;;;;;;3.37;2.35;;;;;;;7.81;48.93;100148.13;4429599;32;35826;-79
2021/04/04 06:40:05;;;;;;;2.70;1.98;;;;;;;7.87;49.48;100152.97;4425629;32;33096;-77
2021/04/04 06:42:33;;;;;;;1.58;1.48;;;;;;;8.27;47.78;100158.66;4414182;32;33617;-77
2021/04/04 06:45:18;;;;;;;1.73;1.27;;;;;;;8.12;48.32;100158.03;4428905;32;33867;-79
2021/04/04 06:47:46;;;;;;;4.87;3.50;;;;;;;8.00;48.63;100159.00;4426804;32;34756;-79
2021/04/04 06:50:23;;;;;;;0.85;0.85;;;;;;;8.45;47.86;100160.72;4427464;32;33274;-79
2021/04/04 06:53:19;;;;;;;2.75;1.70;;;;;;;8.22;47.62;100161.66;4415947;32;33458;-79
2021/04/04 06:55:53;;;;;;;3.75;3.42;;;;;;;8.49;47.97;100159.47;4428213;32;34717;-79
2021/04/04 06:58:46;;;;;;;;;;;;;;;8.07;48.49;100164.66;4415761;32;35389;-79
2021/04/04 07:01:36;;;;;;;4.72;3.45;;;;;;;8.37;47.88;100173.72;4441332;32;32910;-79
2021/04/04 07:04:22;;;;;;;3.67;3.08;;;;;;;8.36;46.84;100173.84;4416085;32;33756;-78
2021/04/04 07:07:03;;;;;;;2.65;2.50;;;;;;;8.57;47.47;100173.84;4404210;32;33416;-78
2021/04/04 07:10:10;;;;;;;3.15;2.03;;;;;;;8.42;47.86;100178.66;4428835;32;34830;-80
2021/04/04 07:13:16;;;;;;;1.23;1.12;;;;;;;8.80;46.27;100170.16;4442181;32;32403;-80
2021/04/04 07:15:58;;;;;;;1.25;1.25;;;;;;;8.60;46.51;100172.75;4440126;32;33274;-78
2021/04/04 07:19:11;;;;;;;1.92;1.83;;;;;;;8.91;46.72;100170.13;4419298;32;35563;-79
2021/04/04 07:22:00;;;;;;;2.67;1.98;;;;;;;9.01;46.59;100176.41;4440455;32;33870;-78
2021/04/04 07:24:42;;;;;;;7.45;2.00;;;;;;;8.95;46.05;100179.53;4425462;32;33117;-81
2021/04/04 07:27:22;;;;;;;3.28;2.45;;;;;;;8.73;46.19;100176.91;4427255;32;35763;-79
2021/04/04 07:30:29;;;;;;;2.90;2.67;;;;;;;8.79;46.79;100175.59;4426652;32;34969;-79
2021/04/04 07:33:19;;;;;;;3.60;3.10;;;;;;;8.89;46.33;100173.91;4423771;32;33526;-80
2021/04/04 07:36:02;;;;;;;2.33;2.05;;;;;;;8.95;45.36;100176.03;4413185;32;35018;-80
2021/04/04 07:38:49;;;;;;;2.47;1.75;;;;;;;9.06;44.56;100171.53;4425883;32;34456;-79
2021/04/04 07:41:42;;;;;;;1.45;1.25;;;;;;;9.50;43.55;100183.78;4425527;32;34530;-79
2021/04/04 07:44:13;;;;;;;2.00;1.40;;;;;;;9.60;42.70;100182.91;4414534;32;34892;-79
2021/04/04 07:47:19;;;;;;;1.73;1.42;;;;;;;9.23;43.41;100171.00;4426445;32;34122;-76
2021/04/04 07:50:11;;;;;;;2.97;1.62;;;;;;;9.40;44.17;100177.56;4425763;32;34304;-78
2021/04/04 07:53:11;;;;;;;2.78;1.52;;;;;;;9.51;42.38;100181.00;4425551;32;35561;-78
2021/04/04 07:55:46;;;;;;;7.22;1.62;;;;;;;9.68;43.27;100177.78;4437405;32;34902;-79
2021/04/04 07:58:32;;;;;;;2.00;1.08;;;;;;;10.21;41.44;100167.91;4425180;32;33927;-77
2021/04/04 08:01:05;;;;;;;2.65;2.30;;;;;;;10.11;41.14;100172.34;4414172;32;33122;-79
2021/04/04 08:03:48;;;;;;;0.60;0.60;;;;;;;10.41;39.18;100172.34;4425122;32;36011;-79
2021/04/04 08:06:17;;;;;;;1.70;1.60;;;;;;;10.22;39.50;100177.56;4412452;32;33333;-79
2021/04/04 08:08:55;;;;;;;1.60;1.48;;;;;;;10.13;40.33;100175.72;4412500;32;32677;-78
2021/04/04 08:11:28;;;;;;;1.83;1.73;;;;;;;10.21;39.73;100170.56;4429407;32;33003;-79
2021/04/04 08:14:02;;;;;;;2.95;1.58;;;;;;;10.44;40.56;100174.72;4436936;32;35706;-78
2021/04/04 08:16:38;;;;;;;2.50;1.40;;;;;;;10.69;38.94;100169.78;4414072;32;35796;-79
2021/04/04 08:19:06;;;;;;;1.60;0.65;;;;;;;10.72;38.95;100166.84;4427474;32;34001;-78
2021/04/04 08:21:37;;;;;;;1.20;0.85;;;;;;;11.08;37.49;100168.88;4428370;32;33039;-79
2021/04/04 08:24:28;;;;;;;1.27;1.20;;;;;;;11.12;37.08;100172.94;4400905;32;35560;-79
2021/04/04 08:27:07;;;;;;;3.12;1.12;;;;;;;10.56;36.92;100166.50;4406479;32;33360;-79
2021/04/04 08:29:51;;;;;;;1.05;0.98;;;;;;;10.61;37.25;100172.28;4411343;32;31757;-76
2021/04/04 08:32:34;;;;;;;3.12;0.75;;;;;;;10.79;37.55;100165.31;4400669;32;34980;-78
2021/04/04 08:35:04;;;;;;;1.45;1.23;;;;;;;10.85;37.66;100183.37;4411853;32;34291;-77
2021/04/04 08:37:37;;;;;;;1.80;1.45;;;;;;;11.02;36.45;100163.28;4425799;32;35741;-78
2021/04/04 08:40:11;;;;;;;3.58;2.28;;;;;;;11.44;33.89;100161.03;4413100;32;34441;-78
2021/04/04 08:42:42;;;;;;;1.05;0.95;;;;;;;11.48;35.87;100159.78;4412793;32;32939;-80
2021/04/04 08:45:20;;;;;;;1.17;0.77;;;;;;;11.17;35.29;100160.06;4413442;32;36376;-76
2021/04/04 08:47:49;;;;;;;1.05;0.95;;;;;;;11.68;33.70;100153.47;4426036;32;33669;-78
2021/04/04 08:50:22;;;;;;;0.88;0.62;;;;;;;11.39;37.06;100154.44;4412607;32;34206;-78
2021/04/04 08:53:00;;;;;;;2.75;1.52;;;;;;;11.52;35.57;100157.66;4412714;32;34758;-76
2021/04/04 08:55:29;;;;;;;0.85;0.85;;;;;;;11.80;35.21;100151.47;4425421;32;34962;-79
2021/04/04 08:58:01;;;;;;;1.67;1.33;;;;;;;11.53;34.62;100146.84;4399529;32;35071;-77
2021/04/04 09:00:30;;;;;;;1.05;0.95;;;;;;;11.80;34.47;100152.31;4412680;32;33491;-77
2021/04/04 09:03:21;;;;;;;0.50;0.50;;;;;;;11.69;34.90;100152.50;4411652;32;34100;-76
2021/04/04 09:05:48;;;;;;;2.25;1.12;;;;;;;11.97;34.69;100153.41;4424898;32;34376;-78
2021/04/04 09:08:17;;;;;;;1.58;1.20;;;;;;;12.30;33.74;100159.03;4412464;32;34395;-80
2021/04/04 09:10:45;;;;;;;2.15;1.15;;;;;;;12.46;32.72;100156.59;4425991;32;33142;-78
2021/04/04 09:13:15;;;;;;;1.95;1.08;;;;;;;12.38;32.20;100147.66;4387242;32;33999;-77
2021/04/04 09:15:47;;;;;;;0.88;0.88;;;;;;;11.76;33.47;100156.28;4412518;32;34854;-78
2021/04/04 09:18:16;;;;;;;1.62;1.17;;;;;;;12.29;32.31;100149.37;4412666;32;33167;-77
2021/04/04 09:20:45;;;;;;;2.00;1.20;;;;;;;12.48;33.90;100151.94;4412552;32;32297;-78
2021/04/04 09:23:15;;;;;;;1.75;1.17;;;;;;;12.23;33.46;100149.97;4414761;32;32859;-78
2021/04/04 09:25:51;;;;;;;1.80;0.90;;;;;;;12.67;32.49;100143.03;4429734;32;35822;-78
2021/04/04 09:28:21;;;;;;;1.50;1.40;;;;;;;12.63;31.49;100144.28;4430253;32;35340;-77
2021/04/04 09:30:48;;;;;;;2.75;2.55;;;;;;;12.77;30.84;100144.63;4417098;32;34722;-77
2021/04/04 09:33:23;;;;;;;3.10;2.25;;;;;;;12.64;31.97;100135.28;4428906;32;34277;-76
2021/04/04 09:35:56;;;;;;;1.45;1.08;;;;;;;12.97;31.78;100145.37;4428786;32;33884;-78
2021/04/04 09:38:33;;;;;;;1.45;1.35;;;;;;;13.06;30.32;100144.47;4430493;32;34870;-79
2021/04/04 09:41:03;;;;;;;2.95;1.70;;;;;;;12.72;32.58;100138.06;4427583;32;33682;-77
2021/04/04 09:43:46;;;;;;;1.05;0.60;;;;;;;12.98;32.55;100139.06;4425562;32;34400;-78
2021/04/04 09:46:15;;;;;;;1.83;1.52;;;;;;;12.95;31.20;100136.69;4429742;32;35337;-79
2021/04/04 09:48:43;;;;;;;0.95;0.80;;;;;;;12.87;30.50;100140.09;4429849;32;33682;-77
2021/04/04 09:51:16;;;;;;;;;;;;;;;13.09;31.88;100131.66;4429767;32;32518;-78
2021/04/04 09:53:48;;;;;;;0.80;0.68;;;;;;;13.52;30.05;100125.53;4429166;32;34127;-77
2021/04/04 09:56:30;;;;;;;;;;;;;;;13.32;31.27;100130.19;4418336;32;33132;-77
2021/04/04 09:59:02;;;;;;;0.40;0.40;;;;;;;13.79;30.77;100120.88;4428122;32;34241;-78
2021/04/04 10:01:45;;;;;;;0.52;0.50;;;;;;;13.31;27.98;100125.84;4439968;32;34295;-77
2021/04/04 10:04:20;;;;;;;1.85;1.75;;;;;;;13.82;30.10;100125.94;4416160;32;32972;-78
2021/04/04 10:07:00;;;;;;;1.73;0.90;;;;;;;13.61;28.81;100120.09;4421793;32;35903;-78
2021/04/04 10:09:42;;;;;;;1.10;1.00;;;;;;;13.76;27.93;100121.22;4403149;32;33377;-77
2021/04/04 10:12:15;;;;;;;3.08;0.90;;;;;;;12.50;29.60;100131.31;4417190;32;33171;-77
2021/04/04 10:15:05;;;;;;;1.48;1.00;;;;;;;12.52;29.42;100126.66;4428708;32;33659;-78
2021/04/04 10:17:57;;;;;;;1.95;0.90;;;;;;;12.95;29.80;100126.84;4428644;32;33241;-76
2021/04/04 10:20:42;;;;;;;1.55;1.35;;;;;;;13.40;29.21;100121.44;4443482;32;34871;-77
2021/04/04 10:23:13;;;;;;;3.30;1.95;;;;;;;13.42;30.92;100127.47;4417774;32;32914;-78
2021/04/04 10:26:17;;;;;;;0.88;0.88;;;;;;;13.69;30.04;100112.13;4429593;32;34401;-75
2021/04/04 10:28:49;;;;;;;3.20;1.02;;;;;;;13.82;28.15;100111.72;4407880;32;34333;-78
2021/04/04 10:31:22;;;;;;;1.40;1.12;;;;;;;13.47;27.92;100109.97;4429166;32;32460;-76
2021/04/04 10:34:02;;;;;;;1.50;0.60;;;;;;;13.23;27.10;100114.25;4423065;32;32881;-76
2021/04/04 10:36:40;;;;;;;0.90;0.90;;;;;;;13.38;27.34;100110.03;4428039;32;34390;-74
2021/04/04 10:39:20;;;;;;;1.27;1.05;;;;;;;13.46;27.51;100107.44;4423916;32;34134;-77
2021/04/04 10:41:52;;;;;;;0.43;0.43;;;;;;;13.68;28.01;100102.44;4427976;32;35668;-77
2021/04/04 10:44:27;;;;;;;0.40;0.40;;;;;;;13.83;27.73;100095.53;4428086;32;34319;-77
2021/04/04 10:47:20;;;;;;;0.87;0.87;;;;;;;13.20;31.10;100107.38;4417429;32;33146;-77
2021/04/04 10:49:57;;;;;;;7.37;1.15;;;;;;;13.85;30.63;100100.69;4428742;32;34478;-77
2021/04/04 10:52:35;;;;;;;0.65;0.65;;;;;;;13.48;26.94;100097.44;4403944;32;32568;-76
2021/04/04 10:55:10;;;;;;;1.62;1.05;;;;;;;13.44;27.32;100093.41;4392894;32;1035846;-77
2021/04/04 10:57:52;;;;;;;0.50;0.50;;;;;;;14.22;27.82;100086.06;4436798;32;33489;-77
2021/04/04 11:00:25;;;;;;;0.73;0.65;;;;;;;14.02;26.56;100092.63;4429965;32;34505;-79
2021/04/04 11:03:01;;;;;;;0.82;0.82;;;;;;;14.08;28.92;100081.31;4421152;32;34579;-77
2021/04/04 11:05:32;;;;;;;1.12;1.02;;;;;;;13.69;27.92;100095.25;4428867;32;34881;-77
2021/04/04 11:08:04;;;;;;;0.82;0.82;;;;;;;14.13;26.22;100088.84;4417084;32;34009;-77
2021/04/04 11:10:35;;;;;;;1.30;1.20;;;;;;;14.24;25.93;100077.91;4437100;32;37454;-77
2021/04/04 11:13:05;;;;;;;1.45;1.02;;;;;;;14.20;26.40;100077.37;4422939;32;34990;-75
2021/04/04 11:15:39;;;;;;;1.70;1.10;;;;;;;14.54;27.70;100081.69;4412308;32;32376;-78
2021/04/04 11:18:16;;;;;;;0.50;0.50;;;;;;;14.45;25.71;100079.97;4429294;32;34465;-76
2021/04/04 11:20:46;;;;;;;2.65;0.75;;;;;;;14.22;25.30;100078.03;4414927;32;33527;-77
2021/04/04 11:23:20;;;;;;;1.45;0.88;;;;;;;14.13;25.27;100070.94;4423499;32;32486;-75
2021/04/04 11:25:48;;;;;;;1.05;1.00;;;;;;;14.32;27.51;100069.91;4415417;32;33032;-76
2021/04/04 11:28:20;;;;;;;2.47;0.80;;;;;;;14.32;25.64;100073.41;4411848;32;32798;-75
2021/04/04 11:30:53;;;;;;;0.95;0.70;;;;;;;14.23;26.27;100074.37;4422002;32;35775;-77
2021/04/04 11:33:28;;;;;;;1.27;0.60;;;;;;;14.42;25.08;100070.63;4403542;32;32984;-76
2021/04/04 11:36:12;;;;;;;1.15;1.05;;;;;;;14.03;26.24;100066.69;4416422;32;33630;-78
2021/04/04 11:38:50;;;;;;;1.70;1.60;;;;;;;14.24;27.41;100065.34;4427887;32;32792;-77
2021/04/04 11:41:22;;;;;;;1.35;0.73;;;;;;;13.81;26.41;100069.94;4420497;32;32861;-75
2021/04/04 11:44:22;;;;;;;0.30;0.30;;;;;;;13.41;27.17;100073.16;4440261;32;35064;-77
2021/04/04 11:47:03;;;;;;;1.33;0.93;;;;;;;13.55;27.19;100067.25;4427947;32;32065;-76
2021/04/04 11:49:42;;;;;;;0.52;0.52;;;;;;;13.58;27.35;100061.59;4425013;32;32206;-77
2021/04/04 11:52:19;;;;;;;1.70;0.50;;;;;;;13.69;28.74;100061.31;4442117;32;34817;-76
2021/04/04 11:54:56;;;;;;;0.85;0.50;;;;;;;13.94;26.04;100064.97;4429102;32;35124;-76
2021/04/04 11:57:32;;;;;;;0.85;0.62;;;;;;;14.09;26.65;100053.56;4430229;32;33876;-77
2021/04/04 12:00:13;;;;;;;1.33;0.73;;;;;;;14.19;26.38;100046.25;4417224;32;32004;-77
2021/04/04 12:03:02;;;;;;;0.65;0.62;;;;;;;14.29;25.87;100040.78;4431104;32;35281;-76
2021/04/04 12:05:38;;;;;;;1.27;0.60;;;;;;;14.10;25.60;100046.34;4419482;32;33972;-77
2021/04/04 12:08:14;;;;;;;1.25;1.15;;;;;;;13.68;25.65;100045.47;4416444;32;30990;-75